createdAt,value
2019-05-22T00:00:08.747Z,73.64
2019-05-22T00:01:55.970Z,73.65
2019-05-22T00:03:36.339Z,73.65
2019-05-22T00:05:19.252Z,73.64
2019-05-22T00:06:57.188Z,73.65
2019-05-22T00:08:37.562Z,73.65
2019-05-22T00:10:15.234Z,73.65
2019-05-22T00:11:54.926Z,73.66
2019-05-22T00:13:32.908Z,73.66
2019-05-22T00:15:17.133Z,73.67
2019-05-22T00:16:52.645Z,73.67
2019-05-22T00:18:29.750Z,73.66
2019-05-22T00:20:07.006Z,73.66
2019-05-22T00:21:43.147Z,73.68
2019-05-22T00:23:19.070Z,73.67
2019-05-22T00:24:55.599Z,73.66
2019-05-22T00:26:33.435Z,73.66
2019-05-22T00:28:11.554Z,73.66
2019-05-22T00:29:47.470Z,73.65
2019-05-22T00:31:24.483Z,73.65
2019-05-22T00:33:02.674Z,73.66
2019-05-22T00:34:38.957Z,73.66
2019-05-22T00:36:14.663Z,73.66
2019-05-22T00:37:50.418Z,73.65
2019-05-22T00:39:27.645Z,73.66
2019-05-22T00:41:11.658Z,73.66
2019-05-22T00:43:03.230Z,73.66
2019-05-22T00:44:29.643Z,73.65
2019-05-22T00:46:06.041Z,73.64
2019-05-22T00:47:47.492Z,73.66
2019-05-22T00:49:25.250Z,73.65
2019-05-22T00:51:14.809Z,73.63
2019-05-22T00:53:02.497Z,73.64
2019-05-22T00:54:55.888Z,73.64
2019-05-22T00:56:55.795Z,73.63
2019-05-22T00:58:44.983Z,73.63
2019-05-22T01:00:25.469Z,73.63
2019-05-22T01:02:06.632Z,73.64
2019-05-22T01:03:43.785Z,73.64
2019-05-22T01:05:22.339Z,73.63
2019-05-22T01:06:58.817Z,73.63
2019-05-22T01:08:37.037Z,73.63
2019-05-22T01:10:16.165Z,73.63
2019-05-22T01:11:53.299Z,73.63
2019-05-22T01:13:31.276Z,73.63
2019-05-22T01:15:10.054Z,73.63
2019-05-22T01:16:46.843Z,73.63
2019-05-22T01:18:24.337Z,73.62
2019-05-22T01:20:01.596Z,73.63
2019-05-22T01:21:38.522Z,73.63
2019-05-22T01:23:18.915Z,73.63
2019-05-22T01:24:57.533Z,73.62
2019-05-22T01:26:33.853Z,73.61
2019-05-22T01:28:13.201Z,73.61
2019-05-22T01:29:51.048Z,73.60
2019-05-22T01:31:39.903Z,73.60
2019-05-22T01:33:20.378Z,73.61
2019-05-22T01:34:56.051Z,73.61
2019-05-22T01:36:45.181Z,73.61
2019-05-22T01:38:26.011Z,73.61
2019-05-22T01:40:06.082Z,73.61
2019-05-22T01:41:42.916Z,73.61
2019-05-22T01:43:24.499Z,73.60
2019-05-22T01:45:06.584Z,73.61
2019-05-22T01:46:37.971Z,73.60
2019-05-22T01:48:18.305Z,73.60
2019-05-22T01:49:55.054Z,73.59
2019-05-22T01:51:31.994Z,73.60
2019-05-22T01:53:12.706Z,73.60
2019-05-22T01:54:51.094Z,73.60
2019-05-22T01:56:30.163Z,73.60
2019-05-22T01:58:06.962Z,73.60
2019-05-22T01:59:42.514Z,73.60
2019-05-22T02:01:20.975Z,73.60
2019-05-22T02:02:56.213Z,73.59
2019-05-22T02:04:32.577Z,73.60
2019-05-22T02:06:08.034Z,73.59
2019-05-22T02:07:43.778Z,73.60
2019-05-22T02:09:31.277Z,73.60
2019-05-22T02:11:07.562Z,73.59
2019-05-22T02:12:52.865Z,73.60
2019-05-22T02:14:28.859Z,73.59
2019-05-22T02:16:04.995Z,73.60
2019-05-22T02:17:40.718Z,73.59
2019-05-22T02:19:17.494Z,73.58
2019-05-22T02:20:53.680Z,73.59
2019-05-22T02:22:29.970Z,73.60
2019-05-22T02:24:08.148Z,73.59
2019-05-22T02:25:47.513Z,73.58
2019-05-22T02:27:25.099Z,73.58
2019-05-22T02:29:00.540Z,73.59
2019-05-22T02:30:37.033Z,73.60
2019-05-22T02:32:15.546Z,73.59
2019-05-22T02:34:09.562Z,73.59
2019-05-22T02:35:47.460Z,73.58
2019-05-22T02:37:23.359Z,73.59
2019-05-22T02:39:00.116Z,73.58
2019-05-22T02:40:35.477Z,73.59
2019-05-22T02:42:18.578Z,73.59
2019-05-22T02:43:54.505Z,73.57
2019-05-22T02:45:30.803Z,73.59
2019-05-22T02:47:18.891Z,73.59
2019-05-22T02:48:46.905Z,73.59
2019-05-22T02:50:29.064Z,73.58
2019-05-22T02:52:06.521Z,73.60
2019-05-22T02:53:44.228Z,73.58
2019-05-22T02:55:19.562Z,73.58
2019-05-22T02:56:56.129Z,73.59
2019-05-22T02:58:34.858Z,73.58
2019-05-22T03:00:14.434Z,73.58
2019-05-22T03:01:52.313Z,73.58
2019-05-22T03:03:32.678Z,73.59
2019-05-22T03:05:12.346Z,73.57
2019-05-22T03:06:48.293Z,73.57
2019-05-22T03:08:24.029Z,73.57
2019-05-22T03:09:59.600Z,73.59
2019-05-22T03:11:38.046Z,73.58
2019-05-22T03:13:13.843Z,73.59
2019-05-22T03:14:49.737Z,73.58
2019-05-22T03:16:25.273Z,73.57
2019-05-22T03:18:05.961Z,73.58
2019-05-22T03:19:45.074Z,73.58
2019-05-22T03:21:20.472Z,73.57
2019-05-22T03:23:40.476Z,73.57
2019-05-22T03:25:18.176Z,73.58
2019-05-22T03:26:53.905Z,73.57
2019-05-22T03:28:29.911Z,73.58
2019-05-22T03:30:12.713Z,73.57
2019-05-22T03:31:49.874Z,73.57
2019-05-22T03:33:25.562Z,73.57
2019-05-22T03:35:01.351Z,73.57
2019-05-22T03:36:37.290Z,73.57
2019-05-22T03:38:13.808Z,73.56
2019-05-22T03:39:49.199Z,73.57
2019-05-22T03:41:24.883Z,73.56
2019-05-22T03:43:03.060Z,73.56
2019-05-22T03:44:38.724Z,73.57
2019-05-22T03:46:35.001Z,73.56
2019-05-22T03:48:13.667Z,73.57
2019-05-22T03:49:49.313Z,73.57
2019-05-22T03:51:26.385Z,73.57
2019-05-22T03:53:13.168Z,73.56
2019-05-22T03:54:49.447Z,73.56
2019-05-22T03:56:26.729Z,73.56
2019-05-22T03:58:02.713Z,73.56
2019-05-22T03:59:42.788Z,73.56
2019-05-22T04:01:19.935Z,73.56
2019-05-22T04:02:55.746Z,73.56
2019-05-22T04:04:36.915Z,73.56
2019-05-22T04:06:13.386Z,73.56
2019-05-22T04:07:54.270Z,73.55
2019-05-22T04:09:35.153Z,73.56
2019-05-22T04:11:11.518Z,73.56
2019-05-22T04:12:48.019Z,73.56
2019-05-22T04:14:25.933Z,73.53
2019-05-22T04:16:04.200Z,73.53
2019-05-22T04:17:40.194Z,73.53
2019-05-22T04:19:16.687Z,73.54
2019-05-22T04:20:53.890Z,73.53
2019-05-22T04:22:29.665Z,73.54
2019-05-22T04:24:05.402Z,73.54
2019-05-22T04:25:41.424Z,73.54
2019-05-22T04:27:18.154Z,73.53
2019-05-22T04:28:57.493Z,73.54
2019-05-22T04:30:33.446Z,73.54
2019-05-22T04:32:18.917Z,73.54
2019-05-22T04:33:57.727Z,73.53
2019-05-22T04:35:33.685Z,73.53
2019-05-22T04:37:11.537Z,73.54
2019-05-22T04:38:47.443Z,73.54
2019-05-22T04:40:57.156Z,73.53
2019-05-22T04:42:32.802Z,73.53
2019-05-22T04:44:07.988Z,73.54
2019-05-22T04:45:43.647Z,73.54
2019-05-22T04:47:19.348Z,73.52
2019-05-22T04:48:55.837Z,73.54
2019-05-22T04:50:31.464Z,73.52
2019-05-22T04:52:07.169Z,73.54
2019-05-22T04:53:42.567Z,73.52
2019-05-22T04:55:19.185Z,73.52
2019-05-22T04:56:54.721Z,73.51
2019-05-22T04:58:32.123Z,73.51
2019-05-22T05:00:09.348Z,73.51
2019-05-22T05:01:45.675Z,73.49
2019-05-22T05:03:21.254Z,73.49
2019-05-22T05:04:58.041Z,73.49
2019-05-22T05:06:36.176Z,73.48
2019-05-22T05:08:13.058Z,73.47
2019-05-22T05:09:48.553Z,73.47
2019-05-22T05:11:26.221Z,73.47
2019-05-22T05:13:01.365Z,73.45
2019-05-22T05:14:37.898Z,73.47
2019-05-22T05:16:13.078Z,73.46
2019-05-22T05:17:48.898Z,73.45
2019-05-22T05:19:27.737Z,73.43
2019-05-22T05:21:05.659Z,73.44
2019-05-22T05:22:45.610Z,73.43
2019-05-22T05:24:21.608Z,73.45
2019-05-22T05:25:57.861Z,73.44
2019-05-22T05:27:36.186Z,73.44
2019-05-22T05:29:26.516Z,73.44
2019-05-22T05:31:02.465Z,73.45
2019-05-22T05:32:40.230Z,73.45
2019-05-22T05:34:56.392Z,73.46
2019-05-22T05:36:32.918Z,73.45
2019-05-22T05:38:08.110Z,73.44
2019-05-22T05:40:29.177Z,73.44
2019-05-22T05:42:06.907Z,73.44
2019-05-22T05:43:42.214Z,73.44
2019-05-22T05:45:17.863Z,73.44
2019-05-22T05:46:54.873Z,73.44
2019-05-22T05:48:31.874Z,73.45
2019-05-22T05:50:15.040Z,73.44
2019-05-22T05:51:49.180Z,73.44
2019-05-22T05:53:26.552Z,73.44
2019-05-22T05:55:03.211Z,73.45
2019-05-22T05:56:39.609Z,73.46
2019-05-22T05:58:35.080Z,73.45
2019-05-22T06:00:13.165Z,73.44
2019-05-22T06:01:51.678Z,73.44
2019-05-22T06:03:42.816Z,73.46
2019-05-22T06:05:18.725Z,73.45
2019-05-22T06:07:22.370Z,73.46
2019-05-22T06:08:59.919Z,73.46
2019-05-22T06:11:30.664Z,73.45
2019-05-22T06:13:06.861Z,73.46
2019-05-22T06:14:42.620Z,73.44
2019-05-22T06:17:02.260Z,73.45
2019-05-22T06:18:39.338Z,73.45
2019-05-22T06:20:23.110Z,73.45
2019-05-22T06:21:59.239Z,73.46
2019-05-22T06:24:24.090Z,73.44
2019-05-22T06:26:00.542Z,73.45
2019-05-22T06:27:55.193Z,73.46
2019-05-22T06:29:57.657Z,73.45
2019-05-22T06:31:42.481Z,73.45
2019-05-22T06:33:34.471Z,73.45
2019-05-22T06:35:13.009Z,73.45
2019-05-22T06:36:49.446Z,73.45
2019-05-22T06:38:57.953Z,73.45
2019-05-22T06:40:34.249Z,73.45
2019-05-22T06:42:09.664Z,73.46
2019-05-22T06:44:45.019Z,73.44
2019-05-22T06:46:49.366Z,73.46
2019-05-22T06:48:28.502Z,73.45
2019-05-22T06:50:04.218Z,73.46
2019-05-22T06:51:39.846Z,73.47
2019-05-22T06:53:23.139Z,73.45
2019-05-22T06:54:57.320Z,73.47
2019-05-22T06:59:17.927Z,73.46
2019-05-22T07:00:59.653Z,73.46
2019-05-22T07:02:40.113Z,73.45
2019-05-22T07:04:16.562Z,73.45
2019-05-22T07:05:58.055Z,73.45
2019-05-22T07:07:33.750Z,73.45
2019-05-22T07:09:12.081Z,73.44
2019-05-22T07:10:50.029Z,73.45
2019-05-22T07:12:25.879Z,73.44
2019-05-22T07:14:01.842Z,73.44
2019-05-22T07:15:48.976Z,73.44
2019-05-22T07:17:26.949Z,73.45
2019-05-22T07:19:03.803Z,73.46
2019-05-22T07:20:41.213Z,73.47
2019-05-22T07:22:17.333Z,73.46
2019-05-22T07:23:53.654Z,73.46
2019-05-22T07:25:31.578Z,73.46
2019-05-22T07:27:27.306Z,73.46
2019-05-22T07:29:05.167Z,73.45
2019-05-22T07:30:46.563Z,73.45
2019-05-22T07:32:24.946Z,73.46
2019-05-22T07:34:00.464Z,73.45
2019-05-22T07:35:50.266Z,73.43
2019-05-22T07:37:23.242Z,73.43
2019-05-22T07:38:54.896Z,73.42
2019-05-22T07:40:34.331Z,73.42
2019-05-22T07:42:09.821Z,73.42
2019-05-22T07:43:45.205Z,73.42
2019-05-22T07:45:21.472Z,73.42
2019-05-22T07:46:57.134Z,73.43
2019-05-22T07:48:33.173Z,73.43
2019-05-22T07:50:09.653Z,73.43
2019-05-22T07:51:57.474Z,73.43
2019-05-22T07:53:28.958Z,73.42
2019-05-22T07:55:04.445Z,73.43
2019-05-22T07:56:42.924Z,73.44
2019-05-22T07:58:21.664Z,73.44
2019-05-22T08:00:00.410Z,73.44
2019-05-22T08:01:42.233Z,73.46
2019-05-22T08:03:23.994Z,73.46
2019-05-22T08:05:00.245Z,73.47
2019-05-22T08:06:40.325Z,73.47
2019-05-22T08:08:21.475Z,73.46
2019-05-22T08:10:03.924Z,73.48
2019-05-22T08:14:12.298Z,73.46
2019-05-22T08:15:54.111Z,73.47
2019-05-22T08:17:36.296Z,73.47
2019-05-22T08:19:11.424Z,73.47
2019-05-22T08:20:47.277Z,73.49
2019-05-22T08:22:25.792Z,73.47
2019-05-22T08:24:01.735Z,73.50
2019-05-22T08:25:36.941Z,73.49
2019-05-22T08:27:13.114Z,73.51
2019-05-22T08:28:49.864Z,73.51
2019-05-22T08:30:25.500Z,73.52
2019-05-22T08:32:04.002Z,73.51
2019-05-22T08:33:47.538Z,73.53
2019-05-22T08:35:23.408Z,73.55
2019-05-22T08:36:59.810Z,73.59
2019-05-22T08:38:35.766Z,73.65
2019-05-22T08:40:23.078Z,73.73
2019-05-22T08:41:59.237Z,73.80
2019-05-22T08:44:13.655Z,73.94
2019-05-22T08:45:37.881Z,73.80
2019-05-22T08:47:14.793Z,73.90
2019-05-22T08:48:50.098Z,74.00
2019-05-22T08:50:27.237Z,74.07
2019-05-22T08:52:22.125Z,74.19
2019-05-22T08:53:48.213Z,74.32
2019-05-22T08:55:26.333Z,74.43
2019-05-22T08:57:06.087Z,74.61
2019-05-22T08:58:52.111Z,74.68
2019-05-22T09:00:38.839Z,74.82
2019-05-22T09:02:17.269Z,74.95
2019-05-22T09:03:53.803Z,74.99
2019-05-22T09:05:31.989Z,75.16
2019-05-22T09:07:08.308Z,75.33
2019-05-22T09:08:47.206Z,75.07
2019-05-22T09:10:26.089Z,75.41
2019-05-22T09:12:00.809Z,75.58
2019-05-22T09:13:36.512Z,75.78
2019-05-22T09:15:14.664Z,76.49
2019-05-22T09:16:50.669Z,76.81
2019-05-22T09:18:26.971Z,76.82
2019-05-22T09:20:03.565Z,77.51
2019-05-22T09:21:40.653Z,79.74
2019-05-22T09:23:18.565Z,81.64
2019-05-22T09:24:54.011Z,83.98
2019-05-22T09:26:33.385Z,86.91
2019-05-22T09:28:08.531Z,93.52
2019-05-22T09:29:45.269Z,98.24
2019-05-22T09:31:22.669Z,100.00
2019-05-22T09:33:03.738Z,100.00
2019-05-22T09:34:41.640Z,100.00
2019-05-22T09:36:19.164Z,100.00
2019-05-22T09:38:00.735Z,100.00
2019-05-22T09:39:38.042Z,100.00
2019-05-22T09:41:16.095Z,100.00
2019-05-22T09:42:51.094Z,100.00
2019-05-22T09:44:26.699Z,100.00
2019-05-22T09:46:06.549Z,100.00
2019-05-22T09:47:52.148Z,100.00
2019-05-22T09:49:41.609Z,100.00
2019-05-22T09:51:17.586Z,100.00
2019-05-22T09:52:57.506Z,100.00
2019-05-22T09:54:33.865Z,100.00
2019-05-22T09:56:09.628Z,100.00
2019-05-22T09:57:45.691Z,100.00
2019-05-22T09:59:23.847Z,100.00
2019-05-22T10:01:16.484Z,100.00
2019-05-22T10:02:55.506Z,100.00
2019-05-22T10:04:31.147Z,100.00
2019-05-22T10:06:12.428Z,100.00
2019-05-22T10:07:59.462Z,100.00
2019-05-22T10:09:26.353Z,100.00
2019-05-22T10:11:02.803Z,100.00
2019-05-22T10:12:39.113Z,100.00
2019-05-22T10:14:17.495Z,100.00
2019-05-22T10:15:53.636Z,100.00
2019-05-22T10:17:29.275Z,100.00
2019-05-22T10:19:06.554Z,100.00
2019-05-22T10:20:41.926Z,100.00
2019-05-22T10:22:20.976Z,100.00
2019-05-22T10:23:59.587Z,100.00
2019-05-22T10:25:36.384Z,100.00
2019-05-22T10:27:12.253Z,100.00
2019-05-22T10:29:21.638Z,100.00
2019-05-22T10:30:58.995Z,100.00
2019-05-22T10:32:40.339Z,100.00
2019-05-22T10:34:16.625Z,100.00
2019-05-22T10:35:52.456Z,100.00
2019-05-22T10:37:30.471Z,100.00
2019-05-22T10:39:08.707Z,100.00
2019-05-22T10:40:58.266Z,100.00
2019-05-22T10:42:36.211Z,100.00
2019-05-22T10:44:19.243Z,100.00
2019-05-22T10:45:56.329Z,100.00
2019-05-22T10:47:31.974Z,100.00
2019-05-22T10:49:10.915Z,100.00
2019-05-22T10:50:48.952Z,100.00
2019-05-22T10:52:27.079Z,100.00
2019-05-22T10:54:14.581Z,100.00
2019-05-22T10:55:52.056Z,100.00
2019-05-22T10:57:32.384Z,100.00
2019-05-22T10:59:10.523Z,100.00
2019-05-22T11:00:47.407Z,100.00
2019-05-22T11:02:23.357Z,100.00
2019-05-22T11:04:01.654Z,100.00
2019-05-22T11:05:38.326Z,100.00
2019-05-22T11:07:16.197Z,100.00
2019-05-22T11:08:52.194Z,100.00
2019-05-22T11:10:45.017Z,100.00
2019-05-22T11:12:20.433Z,100.00
2019-05-22T11:14:01.225Z,100.00
2019-05-22T11:15:34.091Z,100.00
2019-05-22T11:17:11.232Z,100.00
2019-05-22T11:18:49.064Z,100.00
2019-05-22T11:20:26.484Z,100.00
2019-05-22T11:22:04.409Z,100.00
2019-05-22T11:23:52.186Z,100.00
2019-05-22T11:25:20.805Z,100.00
2019-05-22T11:26:58.480Z,100.00
2019-05-22T11:28:34.231Z,100.00
2019-05-22T11:30:10.594Z,100.00
2019-05-22T11:31:46.690Z,100.00
2019-05-22T11:33:23.063Z,100.00
2019-05-22T11:35:02.106Z,100.00
2019-05-22T11:36:37.926Z,100.00
2019-05-22T11:38:15.861Z,100.00
2019-05-22T11:39:53.466Z,100.00
2019-05-22T11:41:35.446Z,100.00
2019-05-22T11:43:12.223Z,100.00
2019-05-22T11:44:47.445Z,100.00
2019-05-22T11:46:28.137Z,100.00
2019-05-22T11:48:04.581Z,100.00
2019-05-22T11:49:43.696Z,100.00
2019-05-22T11:51:22.770Z,100.00
2019-05-22T11:52:58.936Z,100.00
2019-05-22T11:54:39.286Z,100.00
2019-05-22T11:56:21.137Z,100.00
2019-05-22T11:58:04.276Z,100.00
2019-05-22T11:59:46.042Z,100.00
2019-05-22T12:01:28.085Z,100.00
2019-05-22T12:03:15.447Z,100.00
2019-05-22T12:04:54.452Z,100.00
2019-05-22T12:06:32.147Z,100.00
2019-05-22T12:08:17.387Z,100.00
2019-05-22T12:09:57.453Z,100.00
2019-05-22T12:11:32.843Z,100.00
2019-05-22T12:13:09.567Z,100.00
2019-05-22T12:14:45.295Z,100.00
2019-05-22T12:16:22.020Z,100.00
2019-05-22T12:18:02.731Z,100.00
2019-05-22T12:19:38.270Z,100.00
2019-05-22T12:21:17.537Z,100.00
2019-05-22T12:22:57.371Z,100.00
2019-05-22T12:24:39.725Z,100.00
2019-05-22T12:26:16.998Z,100.00
2019-05-22T12:27:53.053Z,100.00
2019-05-22T12:29:30.865Z,100.00
2019-05-22T12:31:07.782Z,100.00
2019-05-22T12:32:45.655Z,100.00
2019-05-22T12:34:22.546Z,100.00
2019-05-22T12:35:58.406Z,100.00
2019-05-22T12:37:36.172Z,100.00
2019-05-22T12:39:12.697Z,100.00
2019-05-22T12:40:52.555Z,100.00
2019-05-22T12:42:31.299Z,100.00
2019-05-22T12:44:07.105Z,100.00
2019-05-22T12:45:48.602Z,100.00
2019-05-22T12:47:24.614Z,100.00
2019-05-22T12:49:01.467Z,100.00
2019-05-22T12:50:41.441Z,100.00
2019-05-22T12:52:20.222Z,100.00
2019-05-22T12:54:02.123Z,100.00
2019-05-22T12:55:35.607Z,100.00
2019-05-22T12:57:17.470Z,100.00
2019-05-22T12:58:55.052Z,100.00
2019-05-22T13:00:32.432Z,100.00
2019-05-22T13:02:33.479Z,100.00
2019-05-22T13:04:16.527Z,100.00
2019-05-22T13:05:57.374Z,100.00
2019-05-22T13:07:40.277Z,100.00
2019-05-22T13:09:15.990Z,100.00
2019-05-22T13:10:54.612Z,100.00
2019-05-22T13:12:30.412Z,100.00
2019-05-22T13:14:08.597Z,100.00
2019-05-22T13:15:52.037Z,100.00
2019-05-22T13:17:27.755Z,100.00
2019-05-22T13:19:06.068Z,100.00
2019-05-22T13:20:47.674Z,100.00
2019-05-22T13:22:25.522Z,100.00
2019-05-22T13:24:04.965Z,100.00
2019-05-22T13:26:10.576Z,100.00
2019-05-22T13:27:48.690Z,100.00
2019-05-22T13:29:24.941Z,100.00
2019-05-22T13:31:03.265Z,100.00
2019-05-22T13:32:40.408Z,100.00
2019-05-22T13:34:16.250Z,100.00
2019-05-22T13:35:56.226Z,100.00
2019-05-22T13:37:36.317Z,100.00
2019-05-22T13:39:12.881Z,100.00
2019-05-22T13:40:50.453Z,100.00
2019-05-22T13:42:28.825Z,100.00
2019-05-22T13:44:04.198Z,100.00
2019-05-22T13:45:43.613Z,100.00
2019-05-22T13:47:19.544Z,100.00
2019-05-22T13:48:58.515Z,100.00
2019-05-22T13:50:34.096Z,100.00
2019-05-22T13:52:16.727Z,100.00
2019-05-22T13:53:54.354Z,100.00
2019-05-22T13:55:30.466Z,100.00
2019-05-22T13:57:07.096Z,100.00
2019-05-22T13:58:43.088Z,100.00
2019-05-22T14:00:24.076Z,100.00
2019-05-22T14:02:00.482Z,100.00
2019-05-22T14:03:35.968Z,100.00
2019-05-22T14:05:15.253Z,100.00
2019-05-22T14:06:55.274Z,100.00
2019-05-22T14:08:34.388Z,100.00
2019-05-22T14:10:12.757Z,100.00
2019-05-22T14:11:50.704Z,100.00
2019-05-22T14:13:27.789Z,100.00
2019-05-22T14:15:06.587Z,100.00
2019-05-22T14:16:49.962Z,100.00
2019-05-22T14:18:26.135Z,100.00
2019-05-22T14:20:17.269Z,100.00
2019-05-22T14:21:59.312Z,100.00
2019-05-22T14:23:40.882Z,100.00
2019-05-22T14:25:17.615Z,100.00
2019-05-22T14:26:59.389Z,100.00
2019-05-22T14:28:36.242Z,100.00
2019-05-22T14:30:20.202Z,100.00
2019-05-22T14:31:58.770Z,100.00
2019-05-22T14:33:40.592Z,100.00
2019-05-22T14:35:15.053Z,100.00
2019-05-22T14:36:51.169Z,100.00
2019-05-22T14:38:27.291Z,100.00
2019-05-22T14:40:06.041Z,100.00
2019-05-22T14:41:41.734Z,100.00
2019-05-22T14:43:25.232Z,100.00
2019-05-22T14:45:02.716Z,100.00
2019-05-22T14:46:42.317Z,100.00
2019-05-22T14:48:21.539Z,100.00
2019-05-22T14:49:56.982Z,100.00
2019-05-22T14:51:36.413Z,100.00
2019-05-22T14:53:12.229Z,100.00
2019-05-22T14:54:48.322Z,100.00
2019-05-22T14:56:28.785Z,100.00
2019-05-22T14:58:12.366Z,100.00
2019-05-22T14:59:50.413Z,100.00
2019-05-22T15:01:28.619Z,100.00
2019-05-22T15:03:05.434Z,100.00
2019-05-22T15:04:46.345Z,100.00
2019-05-22T15:06:22.420Z,100.00
2019-05-22T15:08:05.011Z,100.00
2019-05-22T15:09:39.759Z,100.00
2019-05-22T15:11:19.032Z,100.00
2019-05-22T15:13:05.059Z,100.00
2019-05-22T15:14:43.078Z,100.00
2019-05-22T15:16:19.184Z,100.00
2019-05-22T15:17:56.921Z,100.00
2019-05-22T15:19:34.995Z,100.00
2019-05-22T15:21:11.840Z,100.00
2019-05-22T15:22:47.572Z,100.00
2019-05-22T15:24:27.818Z,100.00
2019-05-22T15:26:05.148Z,100.00
2019-05-22T15:27:43.219Z,100.00
2019-05-22T15:29:29.121Z,100.00
2019-05-22T15:31:12.512Z,100.00
2019-05-22T15:32:51.101Z,100.00
2019-05-22T15:34:32.483Z,100.00
2019-05-22T15:36:13.372Z,100.00
2019-05-22T15:38:00.813Z,100.00
2019-05-22T15:39:37.436Z,100.00
2019-05-22T15:41:33.319Z,100.00
2019-05-22T15:43:15.288Z,100.00
2019-05-22T15:44:51.235Z,100.00
2019-05-22T15:46:31.566Z,100.00
2019-05-22T15:48:15.640Z,100.00
2019-05-22T15:49:56.772Z,100.00
2019-05-22T15:51:35.210Z,100.00
2019-05-22T15:53:15.202Z,100.00
2019-05-22T15:54:51.563Z,100.00
2019-05-22T15:56:34.035Z,100.00
2019-05-22T15:58:18.201Z,100.00
2019-05-22T15:59:55.221Z,100.00
2019-05-22T16:01:34.260Z,100.00
2019-05-22T16:03:15.748Z,100.00
2019-05-22T16:04:52.093Z,100.00
2019-05-22T16:06:34.192Z,100.00
2019-05-22T16:08:23.420Z,100.00
2019-05-22T16:10:01.237Z,100.00
2019-05-22T16:11:42.481Z,100.00
2019-05-22T16:13:26.962Z,100.00
2019-05-22T16:15:06.019Z,100.00
2019-05-22T16:16:44.580Z,100.00
2019-05-22T16:18:25.351Z,100.00
2019-05-22T16:20:07.803Z,100.00
2019-05-22T16:21:52.899Z,100.00
2019-05-22T16:23:33.183Z,100.00
2019-05-22T16:25:15.293Z,100.00
2019-05-22T16:26:51.582Z,100.00
2019-05-22T16:28:33.267Z,100.00
2019-05-22T16:30:17.828Z,100.00
2019-05-22T16:31:56.925Z,100.00
2019-05-22T16:33:35.038Z,100.00
2019-05-22T16:35:11.476Z,100.00
2019-05-22T16:36:49.062Z,100.00
2019-05-22T16:38:36.387Z,100.00
2019-05-22T16:40:12.433Z,100.00
2019-05-22T16:41:47.961Z,100.00
2019-05-22T16:43:46.810Z,100.00
2019-05-22T16:45:22.755Z,100.00
2019-05-22T16:47:28.089Z,100.00
2019-05-22T16:49:13.606Z,100.00
2019-05-22T16:51:01.626Z,100.00
2019-05-22T16:52:50.626Z,100.00
2019-05-22T16:54:30.320Z,100.00
2019-05-22T16:56:09.226Z,100.00
2019-05-22T16:57:44.831Z,100.00
2019-05-22T16:59:23.583Z,100.00
2019-05-22T17:00:59.317Z,100.00
2019-05-22T17:02:36.394Z,100.00
2019-05-22T17:04:22.033Z,100.00
2019-05-22T17:05:57.496Z,100.00
2019-05-22T17:07:50.367Z,100.00
2019-05-22T17:09:40.162Z,100.00
2019-05-22T17:11:33.357Z,100.00
2019-05-22T17:13:26.255Z,100.00
2019-05-22T17:15:04.159Z,100.00
2019-05-22T17:16:47.346Z,100.00
2019-05-22T17:18:46.026Z,100.00
2019-05-22T17:20:13.413Z,100.00
2019-05-22T17:21:49.519Z,100.00
2019-05-22T17:23:30.025Z,100.00
2019-05-22T17:25:05.947Z,100.00
2019-05-22T17:26:43.913Z,100.00
2019-05-22T17:28:19.548Z,100.00
2019-05-22T17:29:56.439Z,100.00
2019-05-22T17:31:40.975Z,100.00
2019-05-22T17:33:27.290Z,100.00
2019-05-22T17:35:00.884Z,100.00
2019-05-22T17:36:39.372Z,100.00
2019-05-22T17:38:29.932Z,100.00
2019-05-22T17:40:06.757Z,100.00
2019-05-22T17:41:47.965Z,100.00
2019-05-22T17:43:24.373Z,100.00
2019-05-22T17:45:01.072Z,100.00
2019-05-22T17:46:37.227Z,100.00
2019-05-22T17:48:13.410Z,100.00
2019-05-22T17:49:51.833Z,100.00
2019-05-22T17:51:33.213Z,100.00
2019-05-22T17:53:09.383Z,100.00
2019-05-22T17:54:55.982Z,100.00
2019-05-22T17:56:35.252Z,100.00
2019-05-22T17:58:18.522Z,100.00
2019-05-22T18:00:01.292Z,100.00
2019-05-22T18:01:40.619Z,100.00
2019-05-22T18:03:17.920Z,100.00
2019-05-22T18:05:24.224Z,100.00
2019-05-22T18:07:12.814Z,100.00
2019-05-22T18:08:52.754Z,100.00
2019-05-22T18:10:56.868Z,100.00
2019-05-22T18:12:43.891Z,100.00
2019-05-22T18:14:34.797Z,100.00
2019-05-22T18:16:12.336Z,100.00
2019-05-22T18:18:15.444Z,100.00
2019-05-22T18:19:55.922Z,100.00
2019-05-22T18:21:39.612Z,100.00
2019-05-22T18:23:24.991Z,100.00
2019-05-22T18:25:00.416Z,100.00
2019-05-22T18:26:48.198Z,100.00
2019-05-22T18:28:29.671Z,100.00
2019-05-22T18:30:08.315Z,100.00
2019-05-22T18:31:53.528Z,100.00
2019-05-22T18:33:38.752Z,100.00
2019-05-22T18:35:20.906Z,100.00
2019-05-22T18:37:01.217Z,100.00
2019-05-22T18:38:36.551Z,100.00
2019-05-22T18:40:17.078Z,100.00
2019-05-22T18:41:52.755Z,100.00
2019-05-22T18:43:44.264Z,100.00
2019-05-22T18:45:34.315Z,100.00
2019-05-22T18:47:30.301Z,100.00
2019-05-22T18:49:17.764Z,100.00
2019-05-22T18:50:54.321Z,100.00
2019-05-22T18:52:40.947Z,100.00
2019-05-22T18:56:25.906Z,100.00
2019-05-22T18:58:04.300Z,100.00
2019-05-22T18:59:51.425Z,100.00
2019-05-22T19:01:35.344Z,100.00
2019-05-22T19:03:29.184Z,100.00
2019-05-22T19:04:57.604Z,100.00
2019-05-22T19:06:33.339Z,100.00
2019-05-22T19:08:17.932Z,100.00
2019-05-22T19:09:58.640Z,100.00
2019-05-22T19:11:36.651Z,100.00
2019-05-22T19:13:16.136Z,100.00
2019-05-22T19:15:00.205Z,100.00
2019-05-22T19:16:37.552Z,100.00
2019-05-22T19:18:13.475Z,100.00
2019-05-22T19:19:53.574Z,100.00
2019-05-22T19:21:29.305Z,100.00
2019-05-22T19:23:04.880Z,100.00
2019-05-22T19:24:40.683Z,100.00
2019-05-22T19:26:17.691Z,100.00
2019-05-22T19:27:53.828Z,100.00
2019-05-22T19:29:31.187Z,100.00
2019-05-22T19:31:06.929Z,100.00
2019-05-22T19:32:46.238Z,100.00
2019-05-22T19:34:28.010Z,100.00
2019-05-22T19:36:08.694Z,100.00
2019-05-22T19:37:46.021Z,100.00
2019-05-22T19:39:22.393Z,100.00
2019-05-22T19:41:16.846Z,100.00
2019-05-22T19:42:52.749Z,100.00
2019-05-22T19:44:33.929Z,100.00
2019-05-22T19:46:12.067Z,100.00
2019-05-22T19:47:54.966Z,100.00
2019-05-22T19:49:38.292Z,100.00
2019-05-22T19:51:13.379Z,100.00
2019-05-22T19:53:17.743Z,100.00
2019-05-22T19:55:22.069Z,100.00
2019-05-22T19:57:02.084Z,100.00
2019-05-22T19:58:43.483Z,100.00
2019-05-22T20:00:25.193Z,100.00
2019-05-22T20:02:00.837Z,100.00
2019-05-22T20:05:21.532Z,100.00
2019-05-22T20:06:57.813Z,100.00
2019-05-22T20:08:36.297Z,100.00
2019-05-22T20:10:11.859Z,100.00
2019-05-22T20:11:52.093Z,100.00
2019-05-22T20:13:29.321Z,100.00
2019-05-22T20:15:24.695Z,100.00
2019-05-22T20:17:07.395Z,100.00
2019-05-22T20:18:44.999Z,100.00
2019-05-22T20:20:20.334Z,100.00
2019-05-22T20:22:00.438Z,100.00
2019-05-22T20:23:37.143Z,100.00
2019-05-22T20:25:17.538Z,100.00
2019-05-22T20:26:53.086Z,100.00
2019-05-22T20:28:29.369Z,100.00
2019-05-22T20:30:05.921Z,100.00
2019-05-22T20:31:48.440Z,100.00
2019-05-22T20:33:30.251Z,100.00
2019-05-22T20:35:07.120Z,100.00
2019-05-22T20:36:43.914Z,100.00
2019-05-22T20:38:27.127Z,100.00
2019-05-22T20:40:06.157Z,100.00
2019-05-22T20:41:41.358Z,100.00
2019-05-22T20:43:17.566Z,100.00
2019-05-22T20:44:57.394Z,100.00
2019-05-22T20:46:37.412Z,100.00
2019-05-22T20:48:25.911Z,100.00
2019-05-22T20:50:02.030Z,100.00
2019-05-22T20:51:41.440Z,100.00
2019-05-22T20:53:25.242Z,100.00
2019-05-22T20:55:15.455Z,100.00
2019-05-22T20:56:55.760Z,100.00
2019-05-22T20:58:36.976Z,100.00
2019-05-22T21:00:20.312Z,100.00
2019-05-22T21:02:11.309Z,100.00
2019-05-22T21:03:48.231Z,100.00
2019-05-22T21:05:27.591Z,100.00
2019-05-22T21:07:07.696Z,100.00
2019-05-22T21:08:47.525Z,100.00
2019-05-22T21:10:28.397Z,100.00
2019-05-22T21:12:09.821Z,100.00
2019-05-22T21:13:53.231Z,100.00
2019-05-22T21:15:35.804Z,100.00